Ophir, Oregon
Current Conditions -  °F | °C
As of 6:30 PM on Wednesday 22 Oct 2014 (Local Time) from KBOK Reporting Station
Light Rain Light Rain  
Wind Chill: 57°   Ceiling: 100
Heat Index: 57°   Visibility: 1mi
Dew Point: 57°   Wind: 18mph
Humidity: 100%   Direction: 170°S
Pressure: 29.88"   Gusts: 29mph
Location:  42.56°N, 124.39°W
Report Text: KBOK 230130Z AUTO 17016G25KT 1SM -RA BR OVC001 14/14 A2988 RMK AO2 P0008
Loading
Personal Weather Stations






























Interactive Weather Map New forecast layout! Learn more

10-Day Weather Forecast

Advertisements
Track Severe Weather on mobile